sensor_id;sensor_type;location;lat;lon;timestamp;pressure;altitude;pressure_sealevel;temperature;humidity
49463;BME280;35357;51.722;0.500;2022-07-06T00:01:03;102465.07;;;16.49;53.31
49463;BME280;35357;51.722;0.500;2022-07-06T00:03:30;102464.06;;;16.21;52.34
49463;BME280;35357;51.722;0.500;2022-07-06T00:05:57;102470.29;;;16.50;51.67
49463;BME280;35357;51.722;0.500;2022-07-06T00:08:24;102469.69;;;16.97;50.49
49463;BME280;35357;51.722;0.500;2022-07-06T00:10:51;102463.98;;;16.59;51.78
49463;BME280;35357;51.722;0.500;2022-07-06T00:13:19;102461.16;;;15.25;54.32
49463;BME280;35357;51.722;0.500;2022-07-06T00:15:47;102458.00;;;15.07;55.57
49463;BME280;35357;51.722;0.500;2022-07-06T00:18:13;102455.58;;;15.31;55.89
49463;BME280;35357;51.722;0.500;2022-07-06T00:20:40;102454.77;;;15.70;54.42
49463;BME280;35357;51.722;0.500;2022-07-06T00:23:07;102460.70;;;15.30;55.14
49463;BME280;35357;51.722;0.500;2022-07-06T00:25:35;102464.10;;;14.97;56.52
49463;BME280;35357;51.722;0.500;2022-07-06T00:28:02;102460.28;;;14.14;59.80
49463;BME280;35357;51.722;0.500;2022-07-06T00:30:29;102461.97;;;14.57;59.23
49463;BME280;35357;51.722;0.500;2022-07-06T00:32:56;102460.24;;;13.97;61.40
49463;BME280;35357;51.722;0.500;2022-07-06T00:35:23;102459.55;;;13.85;62.28
49463;BME280;35357;51.722;0.500;2022-07-06T00:37:51;102461.06;;;14.08;62.38
49463;BME280;35357;51.722;0.500;2022-07-06T00:40:19;102462.53;;;13.93;62.87
49463;BME280;35357;51.722;0.500;2022-07-06T00:42:47;102467.24;;;13.50;63.71
49463;BME280;35357;51.722;0.500;2022-07-06T00:45:16;102473.27;;;13.27;65.75
49463;BME280;35357;51.722;0.500;2022-07-06T00:47:45;102473.87;;;13.18;66.03
49463;BME280;35357;51.722;0.500;2022-07-06T00:50:14;102468.36;;;13.48;65.13
49463;BME280;35357;51.722;0.500;2022-07-06T00:52:42;102476.83;;;12.85;67.02
49463;BME280;35357;51.722;0.500;2022-07-06T00:55:11;102475.27;;;13.45;65.80
49463;BME280;35357;51.722;0.500;2022-07-06T00:57:40;102473.64;;;13.09;67.12
49463;BME280;35357;51.722;0.500;2022-07-06T01:00:10;102469.52;;;12.20;68.30
49463;BME280;35357;51.722;0.500;2022-07-06T01:02:37;102468.86;;;12.58;69.07
49463;BME280;35357;51.722;0.500;2022-07-06T01:05:06;102459.58;;;12.40;70.01
49463;BME280;35357;51.722;0.500;2022-07-06T01:07:35;102455.76;;;13.23;67.52
49463;BME280;35357;51.722;0.500;2022-07-06T01:10:04;102459.66;;;12.65;69.86
49463;BME280;35357;51.722;0.500;2022-07-06T01:12:34;102459.79;;;12.89;68.69
49463;BME280;35357;51.722;0.500;2022-07-06T01:15:04;102457.07;;;12.16;71.19
49463;BME280;35357;51.722;0.500;2022-07-06T01:17:32;102456.56;;;12.15;71.70
49463;BME280;35357;51.722;0.500;2022-07-06T01:20:08;102455.75;;;11.68;73.98
49463;BME280;35357;51.722;0.500;2022-07-06T01:22:35;102459.07;;;12.03;73.27
49463;BME280;35357;51.722;0.500;2022-07-06T01:25:02;102458.41;;;12.09;73.39
49463;BME280;35357;51.722;0.500;2022-07-06T01:27:29;102459.94;;;11.74;73.42
49463;BME280;35357;51.722;0.500;2022-07-06T01:29:57;102459.59;;;12.69;72.01
49463;BME280;35357;51.722;0.500;2022-07-06T01:32:25;102460.23;;;11.81;73.97
49463;BME280;35357;51.722;0.500;2022-07-06T01:34:52;102460.87;;;12.26;73.43
49463;BME280;35357;51.722;0.500;2022-07-06T01:37:19;102462.09;;;11.83;74.87
49463;BME280;35357;51.722;0.500;2022-07-06T01:39:46;102460.09;;;12.40;73.71
49463;BME280;35357;51.722;0.500;2022-07-06T01:42:14;102462.17;;;12.12;74.49
49463;BME280;35357;51.722;0.500;2022-07-06T01:44:41;102461.21;;;12.29;73.63
49463;BME280;35357;51.722;0.500;2022-07-06T01:47:08;102460.91;;;12.47;73.28
49463;BME280;35357;51.722;0.500;2022-07-06T01:49:34;102468.28;;;12.26;73.89
49463;BME280;35357;51.722;0.500;2022-07-06T01:52:02;102468.98;;;11.72;75.36
49463;BME280;35357;51.722;0.500;2022-07-06T01:54:29;102468.14;;;11.38;77.07
49463;BME280;35357;51.722;0.500;2022-07-06T01:56:57;102470.40;;;11.66;76.10
49463;BME280;35357;51.722;0.500;2022-07-06T01:59:24;102469.97;;;11.49;76.70
49463;BME280;35357;51.722;0.500;2022-07-06T02:01:51;102467.65;;;11.40;76.03
49463;BME280;35357;51.722;0.500;2022-07-06T02:04:19;102463.36;;;11.87;75.66
49463;BME280;35357;51.722;0.500;2022-07-06T02:06:46;102464.85;;;12.41;72.88
49463;BME280;35357;51.722;0.500;2022-07-06T02:09:13;102465.44;;;12.01;74.13
49463;BME280;35357;51.722;0.500;2022-07-06T02:11:41;102469.53;;;12.45;72.31
49463;BME280;35357;51.722;0.500;2022-07-06T02:14:08;102466.27;;;12.45;71.33
49463;BME280;35357;51.722;0.500;2022-07-06T02:16:35;102464.13;;;12.55;71.96
49463;BME280;35357;51.722;0.500;2022-07-06T02:19:03;102466.67;;;12.41;73.05
49463;BME280;35357;51.722;0.500;2022-07-06T02:21:30;102468.51;;;12.58;71.20
49463;BME280;35357;51.722;0.500;2022-07-06T02:23:57;102471.05;;;12.15;73.99
49463;BME280;35357;51.722;0.500;2022-07-06T02:26:24;102468.40;;;12.32;73.29
49463;BME280;35357;51.722;0.500;2022-07-06T02:28:50;102465.48;;;11.63;75.05
49463;BME280;35357;51.722;0.500;2022-07-06T02:31:17;102472.90;;;10.83;78.55
49463;BME280;35357;51.722;0.500;2022-07-06T02:33:45;102479.30;;;11.23;78.53
49463;BME280;35357;51.722;0.500;2022-07-06T02:36:12;102475.27;;;11.54;76.77
49463;BME280;35357;51.722;0.500;2022-07-06T02:38:39;102474.55;;;11.89;75.37
49463;BME280;35357;51.722;0.500;2022-07-06T02:41:06;102471.09;;;11.87;75.18
49463;BME280;35357;51.722;0.500;2022-07-06T02:43:32;102473.30;;;10.99;77.99
49463;BME280;35357;51.722;0.500;2022-07-06T02:45:59;102469.06;;;10.89;78.62
49463;BME280;35357;51.722;0.500;2022-07-06T02:48:26;102465.13;;;12.05;75.21
49463;BME280;35357;51.722;0.500;2022-07-06T02:50:54;102467.78;;;11.47;77.03
49463;BME280;35357;51.722;0.500;2022-07-06T02:53:21;102468.13;;;11.51;77.40
49463;BME280;35357;51.722;0.500;2022-07-06T02:55:48;102469.37;;;11.52;77.74
49463;BME280;35357;51.722;0.500;2022-07-06T02:58:16;102471.45;;;11.50;77.32
49463;BME280;35357;51.722;0.500;2022-07-06T03:00:43;102467.06;;;11.80;76.15
49463;BME280;35357;51.722;0.500;2022-07-06T03:03:10;102472.74;;;12.07;75.13
49463;BME280;35357;51.722;0.500;2022-07-06T03:05:37;102476.89;;;10.94;78.40
49463;BME280;35357;51.722;0.500;2022-07-06T03:08:04;102474.05;;;11.64;76.05
49463;BME280;35357;51.722;0.500;2022-07-06T03:10:32;102478.14;;;12.08;73.18
49463;BME280;35357;51.722;0.500;2022-07-06T03:12:58;102476.24;;;12.47;71.97
49463;BME280;35357;51.722;0.500;2022-07-06T03:15:25;102477.06;;;12.53;71.27
49463;BME280;35357;51.722;0.500;2022-07-06T03:17:53;102474.70;;;12.25;73.44
49463;BME280;35357;51.722;0.500;2022-07-06T03:20:20;102475.76;;;12.39;73.31
49463;BME280;35357;51.722;0.500;2022-07-06T03:22:47;102465.53;;;11.76;74.44
49463;BME280;35357;51.722;0.500;2022-07-06T03:25:14;102467.43;;;11.93;73.07
49463;BME280;35357;51.722;0.500;2022-07-06T03:27:42;102465.37;;;11.75;74.17
49463;BME280;35357;51.722;0.500;2022-07-06T03:30:09;102460.83;;;11.34;75.93
49463;BME280;35357;51.722;0.500;2022-07-06T03:32:36;102459.00;;;11.56;76.84
49463;BME280;35357;51.722;0.500;2022-07-06T03:35:04;102458.27;;;11.84;74.93
49463;BME280;35357;51.722;0.500;2022-07-06T03:37:32;102461.37;;;12.69;71.88
49463;BME280;35357;51.722;0.500;2022-07-06T03:39:58;102468.13;;;11.83;74.79
49463;BME280;35357;51.722;0.500;2022-07-06T03:42:25;102470.96;;;11.22;77.23
49463;BME280;35357;51.722;0.500;2022-07-06T03:44:52;102474.21;;;11.59;76.47
49463;BME280;35357;51.722;0.500;2022-07-06T03:47:19;102470.78;;;12.38;73.79
49463;BME280;35357;51.722;0.500;2022-07-06T03:49:46;102472.00;;;12.43;72.72
49463;BME280;35357;51.722;0.500;2022-07-06T03:52:13;102477.70;;;12.51;73.27
49463;BME280;35357;51.722;0.500;2022-07-06T03:54:40;102483.68;;;12.24;74.24
49463;BME280;35357;51.722;0.500;2022-07-06T03:57:07;102478.69;;;12.18;73.92
49463;BME280;35357;51.722;0.500;2022-07-06T03:59:34;102475.45;;;12.19;74.51
49463;BME280;35357;51.722;0.500;2022-07-06T04:02:02;102476.70;;;12.45;73.00
49463;BME280;35357;51.722;0.500;2022-07-06T04:04:30;102469.70;;;12.71;72.24
49463;BME280;35357;51.722;0.500;2022-07-06T04:06:57;102466.67;;;12.57;72.07
49463;BME280;35357;51.722;0.500;2022-07-06T04:09:23;102466.59;;;12.79;71.46
49463;BME280;35357;51.722;0.500;2022-07-06T04:11:50;102467.99;;;12.43;71.39
49463;BME280;35357;51.722;0.500;2022-07-06T04:14:18;102466.88;;;12.69;71.67
49463;BME280;35357;51.722;0.500;2022-07-06T04:16:45;102468.20;;;12.66;71.07
49463;BME280;35357;51.722;0.500;2022-07-06T04:19:12;102466.58;;;12.38;71.90
49463;BME280;35357;51.722;0.500;2022-07-06T04:21:40;102468.82;;;12.18;71.39
49463;BME280;35357;51.722;0.500;2022-07-06T04:24:08;102471.27;;;12.66;70.88
49463;BME280;35357;51.722;0.500;2022-07-06T04:26:34;102474.75;;;12.43;72.49
49463;BME280;35357;51.722;0.500;2022-07-06T04:29:02;102475.11;;;12.76;70.50
49463;BME280;35357;51.722;0.500;2022-07-06T04:31:29;102475.75;;;11.69;73.73
49463;BME280;35357;51.722;0.500;2022-07-06T04:33:57;102478.13;;;12.00;72.88
49463;BME280;35357;51.722;0.500;2022-07-06T04:36:24;102481.37;;;12.45;71.00
49463;BME280;35357;51.722;0.500;2022-07-06T04:38:52;102487.63;;;12.37;72.79
49463;BME280;35357;51.722;0.500;2022-07-06T04:41:19;102491.88;;;12.75;72.44
49463;BME280;35357;51.722;0.500;2022-07-06T04:43:46;102488.23;;;12.34;74.29
49463;BME280;35357;51.722;0.500;2022-07-06T04:46:13;102485.12;;;11.95;73.55
49463;BME280;35357;51.722;0.500;2022-07-06T04:48:40;102482.99;;;12.64;71.67
49463;BME280;35357;51.722;0.500;2022-07-06T04:51:07;102478.04;;;11.83;74.57
49463;BME280;35357;51.722;0.500;2022-07-06T04:53:35;102476.73;;;11.67;76.42
49463;BME280;35357;51.722;0.500;2022-07-06T04:56:02;102477.54;;;12.62;73.24
49463;BME280;35357;51.722;0.500;2022-07-06T04:58:29;102477.06;;;12.42;73.44
49463;BME280;35357;51.722;0.500;2022-07-06T05:00:56;102477.83;;;13.41;71.29
49463;BME280;35357;51.722;0.500;2022-07-06T05:03:23;102483.19;;;12.58;72.49
49463;BME280;35357;51.722;0.500;2022-07-06T05:05:50;102491.75;;;12.38;72.64
49463;BME280;35357;51.722;0.500;2022-07-06T05:08:17;102495.82;;;12.88;71.86
49463;BME280;35357;51.722;0.500;2022-07-06T05:10:45;102493.75;;;12.32;72.62
49463;BME280;35357;51.722;0.500;2022-07-06T05:13:12;102487.88;;;12.96;71.10
49463;BME280;35357;51.722;0.500;2022-07-06T05:15:39;102482.52;;;13.63;69.14
49463;BME280;35357;51.722;0.500;2022-07-06T05:18:07;102487.85;;;13.43;69.66
49463;BME280;35357;51.722;0.500;2022-07-06T05:20:34;102485.27;;;13.69;67.88
49463;BME280;35357;51.722;0.500;2022-07-06T05:23:01;102486.55;;;13.16;69.39
49463;BME280;35357;51.722;0.500;2022-07-06T05:25:29;102483.47;;;13.82;68.08
49463;BME280;35357;51.722;0.500;2022-07-06T05:27:57;102485.12;;;14.17;67.41
49463;BME280;35357;51.722;0.500;2022-07-06T05:30:24;102489.88;;;13.51;68.82
49463;BME280;35357;51.722;0.500;2022-07-06T05:32:51;102480.19;;;13.93;68.28
49463;BME280;35357;51.722;0.500;2022-07-06T05:35:19;102478.71;;;13.68;68.44
49463;BME280;35357;51.722;0.500;2022-07-06T05:37:46;102484.19;;;13.73;69.30
49463;BME280;35357;51.722;0.500;2022-07-06T05:40:14;102488.47;;;13.48;69.54
49463;BME280;35357;51.722;0.500;2022-07-06T05:42:41;102486.05;;;13.78;68.57
49463;BME280;35357;51.722;0.500;2022-07-06T05:45:09;102484.34;;;14.47;67.79
49463;BME280;35357;51.722;0.500;2022-07-06T05:47:36;102483.83;;;14.63;67.55
49463;BME280;35357;51.722;0.500;2022-07-06T05:50:04;102480.72;;;14.78;66.30
49463;BME280;35357;51.722;0.500;2022-07-06T05:52:31;102485.82;;;14.59;65.87
49463;BME280;35357;51.722;0.500;2022-07-06T05:54:58;102482.93;;;14.55;66.26
49463;BME280;35357;51.722;0.500;2022-07-06T05:57:25;102484.86;;;14.68;65.82
49463;BME280;35357;51.722;0.500;2022-07-06T05:59:52;102482.99;;;13.78;68.50
49463;BME280;35357;51.722;0.500;2022-07-06T06:02:19;102481.46;;;13.97;68.89
49463;BME280;35357;51.722;0.500;2022-07-06T06:04:45;102482.86;;;15.14;64.94
49463;BME280;35357;51.722;0.500;2022-07-06T06:07:12;102477.79;;;14.65;65.79
49463;BME280;35357;51.722;0.500;2022-07-06T06:09:39;102476.65;;;14.52;66.10
49463;BME280;35357;51.722;0.500;2022-07-06T06:12:07;102479.80;;;15.04;65.83
49463;BME280;35357;51.722;0.500;2022-07-06T06:14:34;102475.77;;;15.50;64.53
49463;BME280;35357;51.722;0.500;2022-07-06T06:17:01;102475.22;;;16.38;61.42
49463;BME280;35357;51.722;0.500;2022-07-06T06:19:29;102475.39;;;17.41;59.29
49463;BME280;35357;51.722;0.500;2022-07-06T06:21:56;102479.59;;;16.45;59.71
49463;BME280;35357;51.722;0.500;2022-07-06T06:24:23;102481.21;;;15.65;62.39
49463;BME280;35357;51.722;0.500;2022-07-06T06:26:49;102485.63;;;17.03;60.22
49463;BME280;35357;51.722;0.500;2022-07-06T06:29:17;102487.93;;;17.08;58.28
49463;BME280;35357;51.722;0.500;2022-07-06T06:31:44;102491.33;;;17.18;59.01
49463;BME280;35357;51.722;0.500;2022-07-06T06:34:11;102492.62;;;15.73;62.05
49463;BME280;35357;51.722;0.500;2022-07-06T06:36:38;102495.83;;;15.85;62.64
49463;BME280;35357;51.722;0.500;2022-07-06T06:39:05;102492.83;;;16.43;62.21
49463;BME280;35357;51.722;0.500;2022-07-06T06:41:32;102496.79;;;15.76;65.17
49463;BME280;35357;51.722;0.500;2022-07-06T06:43:59;102497.30;;;15.72;66.39
49463;BME280;35357;51.722;0.500;2022-07-06T06:46:26;102496.16;;;15.84;66.61
49463;BME280;35357;51.722;0.500;2022-07-06T06:48:54;102496.27;;;15.76;65.89
49463;BME280;35357;51.722;0.500;2022-07-06T06:51:20;102501.17;;;15.23;68.95
49463;BME280;35357;51.722;0.500;2022-07-06T06:53:47;102505.98;;;15.52;68.87
49463;BME280;35357;51.722;0.500;2022-07-06T06:56:15;102504.60;;;15.94;67.59
49463;BME280;35357;51.722;0.500;2022-07-06T06:58:43;102510.04;;;15.39;70.08
49463;BME280;35357;51.722;0.500;2022-07-06T07:01:10;102505.41;;;16.34;67.88
49463;BME280;35357;51.722;0.500;2022-07-06T07:03:38;102509.84;;;15.67;70.05
49463;BME280;35357;51.722;0.500;2022-07-06T07:06:05;102510.80;;;15.87;70.63
49463;BME280;35357;51.722;0.500;2022-07-06T07:08:32;102506.08;;;15.55;71.73
49463;BME280;35357;51.722;0.500;2022-07-06T07:11:00;102507.22;;;14.97;74.01
49463;BME280;35357;51.722;0.500;2022-07-06T07:13:28;102510.43;;;16.30;70.81
49463;BME280;35357;51.722;0.500;2022-07-06T07:15:55;102507.34;;;16.61;69.15
49463;BME280;35357;51.722;0.500;2022-07-06T07:18:22;102506.02;;;16.85;68.62
49463;BME280;35357;51.722;0.500;2022-07-06T07:20:49;102503.95;;;16.64;69.20
49463;BME280;35357;51.722;0.500;2022-07-06T07:23:15;102506.23;;;17.31;66.93
49463;BME280;35357;51.722;0.500;2022-07-06T07:25:43;102504.09;;;17.54;65.50
49463;BME280;35357;51.722;0.500;2022-07-06T07:28:10;102503.90;;;17.02;66.78
49463;BME280;35357;51.722;0.500;2022-07-06T07:30:36;102498.38;;;16.95;67.33
49463;BME280;35357;51.722;0.500;2022-07-06T07:33:04;102494.03;;;16.40;68.52
49463;BME280;35357;51.722;0.500;2022-07-06T07:35:31;102494.19;;;16.79;67.60
49463;BME280;35357;51.722;0.500;2022-07-06T07:37:58;102489.30;;;16.70;67.42
49463;BME280;35357;51.722;0.500;2022-07-06T07:40:25;102484.25;;;15.87;69.92
49463;BME280;35357;51.722;0.500;2022-07-06T07:42:52;102480.02;;;17.04;66.62
49463;BME280;35357;51.722;0.500;2022-07-06T07:45:19;102478.94;;;16.93;66.98
49463;BME280;35357;51.722;0.500;2022-07-06T07:47:45;102478.75;;;17.22;65.61
49463;BME280;35357;51.722;0.500;2022-07-06T07:50:12;102476.88;;;16.76;66.72
49463;BME280;35357;51.722;0.500;2022-07-06T07:52:40;102475.76;;;17.97;62.52
49463;BME280;35357;51.722;0.500;2022-07-06T07:55:08;102475.27;;;17.36;64.32
49463;BME280;35357;51.722;0.500;2022-07-06T07:57:36;102463.41;;;18.00;63.11
49463;BME280;35357;51.722;0.500;2022-07-06T08:00:05;102459.94;;;18.86;60.89
49463;BME280;35357;51.722;0.500;2022-07-06T08:02:32;102470.25;;;17.10;67.71
49463;BME280;35357;51.722;0.500;2022-07-06T08:04:59;102468.97;;;16.75;69.20
49463;BME280;35357;51.722;0.500;2022-07-06T08:07:26;102469.31;;;16.87;70.03
49463;BME280;35357;51.722;0.500;2022-07-06T08:09:54;102463.30;;;17.42;68.64
49463;BME280;35357;51.722;0.500;2022-07-06T08:12:21;102460.03;;;17.38;68.76
49463;BME280;35357;51.722;0.500;2022-07-06T08:14:49;102464.56;;;16.26;73.34
49463;BME280;35357;51.722;0.500;2022-07-06T08:17:16;102466.64;;;16.88;71.86
49463;BME280;35357;51.722;0.500;2022-07-06T08:19:42;102467.85;;;17.84;69.20
49463;BME280;35357;51.722;0.500;2022-07-06T08:22:09;102463.28;;;18.37;68.29
49463;BME280;35357;51.722;0.500;2022-07-06T08:24:37;102460.57;;;18.33;67.67
49463;BME280;35357;51.722;0.500;2022-07-06T08:27:04;102462.98;;;17.26;70.23
49463;BME280;35357;51.722;0.500;2022-07-06T08:29:31;102464.07;;;17.56;70.25
49463;BME280;35357;51.722;0.500;2022-07-06T08:31:58;102470.92;;;17.68;70.74
49463;BME280;35357;51.722;0.500;2022-07-06T08:34:26;102466.08;;;18.31;68.27
49463;BME280;35357;51.722;0.500;2022-07-06T08:36:52;102460.34;;;18.77;67.57
49463;BME280;35357;51.722;0.500;2022-07-06T08:39:20;102465.89;;;17.64;70.14
49463;BME280;35357;51.722;0.500;2022-07-06T08:41:48;102456.19;;;18.08;68.92
49463;BME280;35357;51.722;0.500;2022-07-06T08:44:16;102445.20;;;18.08;69.03
49463;BME280;35357;51.722;0.500;2022-07-06T08:46:45;102450.96;;;17.99;70.00
49463;BME280;35357;51.722;0.500;2022-07-06T08:49:14;102446.55;;;17.94;70.35
49463;BME280;35357;51.722;0.500;2022-07-06T08:51:42;102446.22;;;19.12;66.62
49463;BME280;35357;51.722;0.500;2022-07-06T08:54:12;102447.90;;;19.20;66.35
49463;BME280;35357;51.722;0.500;2022-07-06T08:56:40;102451.30;;;19.47;65.58
49463;BME280;35357;51.722;0.500;2022-07-06T08:59:08;102452.05;;;19.80;63.96
49463;BME280;35357;51.722;0.500;2022-07-06T09:01:35;102450.35;;;18.89;65.26
49463;BME280;35357;51.722;0.500;2022-07-06T09:04:04;102446.85;;;18.12;68.55
49463;BME280;35357;51.722;0.500;2022-07-06T09:06:32;102446.91;;;19.08;66.90
49463;BME280;35357;51.722;0.500;2022-07-06T09:09:05;102442.40;;;18.59;67.75
49463;BME280;35357;51.722;0.500;2022-07-06T09:11:32;102443.14;;;18.95;67.15
49463;BME280;35357;51.722;0.500;2022-07-06T09:13:59;102438.45;;;19.52;65.00
49463;BME280;35357;51.722;0.500;2022-07-06T09:16:28;102439.80;;;19.06;65.64
49463;BME280;35357;51.722;0.500;2022-07-06T09:18:56;102440.52;;;18.30;68.55
49463;BME280;35357;51.722;0.500;2022-07-06T09:21:25;102443.73;;;18.94;67.43
49463;BME280;35357;51.722;0.500;2022-07-06T09:23:54;102440.06;;;18.75;67.96
49463;BME280;35357;51.722;0.500;2022-07-06T09:26:22;102442.92;;;17.93;70.69
49463;BME280;35357;51.722;0.500;2022-07-06T09:28:50;102432.71;;;19.55;67.01
49463;BME280;35357;51.722;0.500;2022-07-06T09:31:18;102435.14;;;18.56;69.23
49463;BME280;35357;51.722;0.500;2022-07-06T09:34:03;102438.54;;;19.67;64.87
49463;BME280;35357;51.722;0.500;2022-07-06T09:36:41;102434.24;;;20.06;62.70
49463;BME280;35357;51.722;0.500;2022-07-06T09:39:26;102441.93;;;19.73;64.25
49463;BME280;35357;51.722;0.500;2022-07-06T09:41:55;102436.31;;;20.49;62.68
49463;BME280;35357;51.722;0.500;2022-07-06T09:44:23;102431.55;;;19.66;63.56
49463;BME280;35357;51.722;0.500;2022-07-06T09:46:52;102432.92;;;20.19;62.71
49463;BME280;35357;51.722;0.500;2022-07-06T09:49:20;102437.92;;;19.22;64.22
49463;BME280;35357;51.722;0.500;2022-07-06T09:51:50;102437.39;;;19.16;65.41
49463;BME280;35357;51.722;0.500;2022-07-06T09:54:17;102433.77;;;19.87;64.63
49463;BME280;35357;51.722;0.500;2022-07-06T09:56:46;102436.68;;;19.51;64.41
49463;BME280;35357;51.722;0.500;2022-07-06T09:59:15;102435.21;;;19.84;64.02
49463;BME280;35357;51.722;0.500;2022-07-06T10:01:43;102435.63;;;19.61;64.49
49463;BME280;35357;51.722;0.500;2022-07-06T10:04:12;102437.87;;;19.95;63.71
49463;BME280;35357;51.722;0.500;2022-07-06T10:06:39;102443.14;;;19.31;65.89
49463;BME280;35357;51.722;0.500;2022-07-06T10:09:08;102443.12;;;19.60;65.43
49463;BME280;35357;51.722;0.500;2022-07-06T10:11:38;102443.85;;;19.16;65.83
49463;BME280;35357;51.722;0.500;2022-07-06T10:14:07;102443.25;;;19.32;64.97
49463;BME280;35357;51.722;0.500;2022-07-06T10:16:36;102442.30;;;20.01;62.51
49463;BME280;35357;51.722;0.500;2022-07-06T10:19:05;102447.50;;;19.67;63.78
49463;BME280;35357;51.722;0.500;2022-07-06T10:21:36;102446.78;;;19.58;64.41
49463;BME280;35357;51.722;0.500;2022-07-06T10:24:04;102436.41;;;19.17;66.10
49463;BME280;35357;51.722;0.500;2022-07-06T10:26:32;102430.37;;;19.72;63.08
49463;BME280;35357;51.722;0.500;2022-07-06T10:29:00;102425.90;;;19.57;65.77
49463;BME280;35357;51.722;0.500;2022-07-06T10:31:28;102423.92;;;20.32;63.26
49463;BME280;35357;51.722;0.500;2022-07-06T10:33:57;102422.60;;;19.61;64.62
49463;BME280;35357;51.722;0.500;2022-07-06T10:36:25;102422.46;;;19.63;64.98
49463;BME280;35357;51.722;0.500;2022-07-06T10:38:54;102414.58;;;20.31;63.45
49463;BME280;35357;51.722;0.500;2022-07-06T10:41:31;102415.35;;;21.60;59.38
49463;BME280;35357;51.722;0.500;2022-07-06T10:44:14;102405.36;;;21.15;59.48
49463;BME280;35357;51.722;0.500;2022-07-06T10:46:50;102396.43;;;22.38;56.56
49463;BME280;35357;51.722;0.500;2022-07-06T10:49:18;102399.16;;;22.87;54.67
49463;BME280;35357;51.722;0.500;2022-07-06T10:51:46;102396.54;;;21.65;57.61
49463;BME280;35357;51.722;0.500;2022-07-06T10:54:15;102389.69;;;23.13;54.50
49463;BME280;35357;51.722;0.500;2022-07-06T10:56:44;102388.34;;;22.98;53.74
49463;BME280;35357;51.722;0.500;2022-07-06T10:59:13;102388.74;;;22.29;53.77
49463;BME280;35357;51.722;0.500;2022-07-06T11:01:42;102382.06;;;22.38;54.76
49463;BME280;35357;51.722;0.500;2022-07-06T11:04:37;102388.91;;;21.21;56.11
49463;BME280;35357;51.722;0.500;2022-07-06T11:07:08;102390.24;;;21.29;57.98
49463;BME280;35357;51.722;0.500;2022-07-06T11:09:35;102387.03;;;21.11;58.90
49463;BME280;35357;51.722;0.500;2022-07-06T11:12:13;102385.26;;;22.13;56.58
49463;BME280;35357;51.722;0.500;2022-07-06T11:14:41;102385.60;;;21.48;56.44
49463;BME280;35357;51.722;0.500;2022-07-06T11:17:10;102382.42;;;22.36;55.03
49463;BME280;35357;51.722;0.500;2022-07-06T11:19:38;102383.01;;;22.47;54.74
49463;BME280;35357;51.722;0.500;2022-07-06T11:22:07;102384.39;;;22.56;55.26
49463;BME280;35357;51.722;0.500;2022-07-06T11:24:36;102378.66;;;23.56;51.47
49463;BME280;35357;51.722;0.500;2022-07-06T11:27:05;102380.44;;;22.95;51.96
49463;BME280;35357;51.722;0.500;2022-07-06T11:29:33;102380.35;;;22.16;54.23
49463;BME280;35357;51.722;0.500;2022-07-06T11:32:02;102377.66;;;22.58;53.48
49463;BME280;35357;51.722;0.500;2022-07-06T11:34:31;102379.71;;;23.27;51.29
49463;BME280;35357;51.722;0.500;2022-07-06T11:37:00;102381.25;;;23.06;50.91
49463;BME280;35357;51.722;0.500;2022-07-06T11:39:28;102381.33;;;22.49;52.71
49463;BME280;35357;51.722;0.500;2022-07-06T11:41:56;102377.73;;;22.33;52.74
49463;BME280;35357;51.722;0.500;2022-07-06T11:44:23;102371.28;;;22.27;53.82
49463;BME280;35357;51.722;0.500;2022-07-06T11:46:51;102366.10;;;22.99;51.52
49463;BME280;35357;51.722;0.500;2022-07-06T11:49:18;102364.76;;;23.34;50.79
49463;BME280;35357;51.722;0.500;2022-07-06T11:51:46;102370.63;;;23.65;50.35
49463;BME280;35357;51.722;0.500;2022-07-06T11:54:15;102376.11;;;22.49;52.64
49463;BME280;35357;51.722;0.500;2022-07-06T11:56:51;102372.90;;;22.27;53.69
49463;BME280;35357;51.722;0.500;2022-07-06T11:59:22;102369.32;;;22.77;52.34
49463;BME280;35357;51.722;0.500;2022-07-06T12:01:50;102366.07;;;21.91;53.56
49463;BME280;35357;51.722;0.500;2022-07-06T12:04:24;102365.53;;;22.16;53.76
49463;BME280;35357;51.722;0.500;2022-07-06T12:06:52;102362.42;;;20.96;55.89
49463;BME280;35357;51.722;0.500;2022-07-06T12:09:19;102366.20;;;21.57;55.49
49463;BME280;35357;51.722;0.500;2022-07-06T12:11:47;102361.57;;;21.27;56.66
49463;BME280;35357;51.722;0.500;2022-07-06T12:14:16;102363.52;;;21.56;56.60
49463;BME280;35357;51.722;0.500;2022-07-06T12:16:43;102355.29;;;21.77;54.53
49463;BME280;35357;51.722;0.500;2022-07-06T12:19:11;102354.71;;;21.29;55.76
49463;BME280;35357;51.722;0.500;2022-07-06T12:21:43;102356.54;;;21.26;55.56
49463;BME280;35357;51.722;0.500;2022-07-06T12:24:17;102352.48;;;21.39;55.80
49463;BME280;35357;51.722;0.500;2022-07-06T12:26:45;102358.78;;;21.07;56.70
49463;BME280;35357;51.722;0.500;2022-07-06T12:29:13;102350.54;;;21.27;56.67
49463;BME280;35357;51.722;0.500;2022-07-06T12:31:42;102347.45;;;21.44;56.17
49463;BME280;35357;51.722;0.500;2022-07-06T12:34:16;102348.80;;;22.25;54.03
49463;BME280;35357;51.722;0.500;2022-07-06T12:36:45;102343.86;;;22.26;53.84
49463;BME280;35357;51.722;0.500;2022-07-06T12:39:14;102340.73;;;22.97;52.79
49463;BME280;35357;51.722;0.500;2022-07-06T12:41:46;102344.50;;;22.36;53.58
49463;BME280;35357;51.722;0.500;2022-07-06T12:44:15;102345.56;;;22.04;54.25
49463;BME280;35357;51.722;0.500;2022-07-06T12:46:43;102337.69;;;21.97;54.97
49463;BME280;35357;51.722;0.500;2022-07-06T12:49:14;102334.12;;;22.79;52.51
49463;BME280;35357;51.722;0.500;2022-07-06T12:51:59;102339.54;;;22.24;53.62
49463;BME280;35357;51.722;0.500;2022-07-06T12:54:32;102340.82;;;22.16;54.62